sensor_id;sensor_type;location;lat;lon;timestamp;pressure;altitude;pressure_sealevel;temperature
13497;BMP180;6820;49.374;8.452;2023-04-30T00:03:26;100952.59;;;20.30
13497;BMP180;6820;49.374;8.452;2023-04-30T00:07:28;100955.09;;;20.27
13497;BMP180;6820;49.374;8.452;2023-04-30T00:11:29;100958.44;;;20.24
13497;BMP180;6820;49.374;8.452;2023-04-30T00:15:31;100947.00;;;20.15
13497;BMP180;6820;49.374;8.452;2023-04-30T00:19:32;100956.53;;;20.19
13497;BMP180;6820;49.374;8.452;2023-04-30T00:23:34;100956.38;;;20.14
13497;BMP180;6820;49.374;8.452;2023-04-30T00:27:36;100956.34;;;20.13
13497;BMP180;6820;49.374;8.452;2023-04-30T00:31:41;100960.06;;;20.21
13497;BMP180;6820;49.374;8.452;2023-04-30T00:35:43;100965.13;;;20.19
13497;BMP180;6820;49.374;8.452;2023-04-30T00:39:44;100960.50;;;20.10
13497;BMP180;6820;49.374;8.452;2023-04-30T00:43:46;100961.25;;;20.06
13497;BMP180;6820;49.374;8.452;2023-04-30T00:47:48;100957.13;;;20.11
13497;BMP180;6820;49.374;8.452;2023-04-30T00:51:51;100957.91;;;20.08
13497;BMP180;6820;49.374;8.452;2023-04-30T00:55:52;100954.16;;;19.99
13497;BMP180;6820;49.374;8.452;2023-04-30T00:59:55;100957.50;;;19.96
13497;BMP180;6820;49.374;8.452;2023-04-30T01:03:57;100959.19;;;19.96
13497;BMP180;6820;49.374;8.452;2023-04-30T01:07:58;100966.31;;;20.03
13497;BMP180;6820;49.374;8.452;2023-04-30T01:12:18;100968.03;;;20.04
13497;BMP180;6820;49.374;8.452;2023-04-30T01:16:24;100962.59;;;19.95
13497;BMP180;6820;49.374;8.452;2023-04-30T01:20:28;100960.91;;;19.95
13497;BMP180;6820;49.374;8.452;2023-04-30T01:28:45;100961.06;;;20.00
13497;BMP180;6820;49.374;8.452;2023-04-30T01:32:47;100949.06;;;20.00
13497;BMP180;6820;49.374;8.452;2023-04-30T01:37:21;100948.22;;;20.01
13497;BMP180;6820;49.374;8.452;2023-04-30T01:49:56;100944.41;;;19.89
13497;BMP180;6820;49.374;8.452;2023-04-30T01:54:08;100953.94;;;19.91
13497;BMP180;6820;49.374;8.452;2023-04-30T01:58:14;100947.09;;;19.93
13497;BMP180;6820;49.374;8.452;2023-04-30T02:02:16;100943.75;;;19.96
13497;BMP180;6820;49.374;8.452;2023-04-30T02:06:17;100948.09;;;19.97
13497;BMP180;6820;49.374;8.452;2023-04-30T02:10:25;100951.34;;;19.91
13497;BMP180;6820;49.374;8.452;2023-04-30T02:14:27;100952.16;;;19.90
13497;BMP180;6820;49.374;8.452;2023-04-30T02:18:28;100948.00;;;19.94
13497;BMP180;6820;49.374;8.452;2023-04-30T02:22:30;100963.63;;;20.00
13497;BMP180;6820;49.374;8.452;2023-04-30T02:26:31;100953.25;;;19.97
13497;BMP180;6820;49.374;8.452;2023-04-30T02:30:34;100949.69;;;19.93
13497;BMP180;6820;49.374;8.452;2023-04-30T02:34:35;100947.00;;;19.90
13497;BMP180;6820;49.374;8.452;2023-04-30T02:38:37;100946.03;;;19.87
13497;BMP180;6820;49.374;8.452;2023-04-30T02:42:39;100949.38;;;19.83
13497;BMP180;6820;49.374;8.452;2023-04-30T02:46:40;100951.94;;;19.83
13497;BMP180;6820;49.374;8.452;2023-04-30T02:50:42;100946.63;;;19.79
13497;BMP180;6820;49.374;8.452;2023-04-30T02:54:43;100945.69;;;19.77
13497;BMP180;6820;49.374;8.452;2023-04-30T02:58:45;100944.69;;;19.73
13497;BMP180;6820;49.374;8.452;2023-04-30T03:02:47;100947.34;;;19.75
13497;BMP180;6820;49.374;8.452;2023-04-30T03:06:48;100954.28;;;19.77
13497;BMP180;6820;49.374;8.452;2023-04-30T03:10:50;100955.94;;;19.75
13497;BMP180;6820;49.374;8.452;2023-04-30T03:14:52;100961.75;;;19.71
13497;BMP180;6820;49.374;8.452;2023-04-30T03:18:54;100958.88;;;19.62
13497;BMP180;6820;49.374;8.452;2023-04-30T03:22:55;100957.88;;;19.59
13497;BMP180;6820;49.374;8.452;2023-04-30T03:26:57;100954.53;;;19.60
13497;BMP180;6820;49.374;8.452;2023-04-30T03:30:58;100950.50;;;19.68
13497;BMP180;6820;49.374;8.452;2023-04-30T03:35:01;100956.63;;;19.71
13497;BMP180;6820;49.374;8.452;2023-04-30T03:39:03;100938.53;;;19.68
13497;BMP180;6820;49.374;8.452;2023-04-30T03:43:04;100939.03;;;19.58
13497;BMP180;6820;49.374;8.452;2023-04-30T03:47:06;100958.63;;;19.55
13497;BMP180;6820;49.374;8.452;2023-04-30T03:51:09;100952.44;;;19.50
13497;BMP180;6820;49.374;8.452;2023-04-30T03:55:10;100950.63;;;19.48
13497;BMP180;6820;49.374;8.452;2023-04-30T03:59:13;100943.03;;;19.51
13497;BMP180;6820;49.374;8.452;2023-04-30T04:03:16;100949.22;;;19.55
13497;BMP180;6820;49.374;8.452;2023-04-30T04:07:18;100951.84;;;19.57
13497;BMP180;6820;49.374;8.452;2023-04-30T04:11:19;100952.28;;;19.46
13497;BMP180;6820;49.374;8.452;2023-04-30T04:15:21;100952.41;;;19.49
13497;BMP180;6820;49.374;8.452;2023-04-30T04:19:23;100951.16;;;19.38
13497;BMP180;6820;49.374;8.452;2023-04-30T04:23:25;100962.16;;;19.34
13497;BMP180;6820;49.374;8.452;2023-04-30T04:27:27;100955.31;;;19.34
13497;BMP180;6820;49.374;8.452;2023-04-30T04:31:29;100964.91;;;19.40
13497;BMP180;6820;49.374;8.452;2023-04-30T04:35:32;100963.28;;;19.42
13497;BMP180;6820;49.374;8.452;2023-04-30T04:39:33;100969.50;;;19.48
13497;BMP180;6820;49.374;8.452;2023-04-30T04:43:37;100972.25;;;19.52
13497;BMP180;6820;49.374;8.452;2023-04-30T04:47:39;100967.19;;;19.55
13497;BMP180;6820;49.374;8.452;2023-04-30T04:51:40;100966.53;;;19.61
13497;BMP180;6820;49.374;8.452;2023-04-30T04:55:42;100963.47;;;19.71
13497;BMP180;6820;49.374;8.452;2023-04-30T04:59:44;100970.53;;;19.76
13497;BMP180;6820;49.374;8.452;2023-04-30T05:03:45;100976.75;;;19.83
13497;BMP180;6820;49.374;8.452;2023-04-30T05:07:48;100961.38;;;19.84
13497;BMP180;6820;49.374;8.452;2023-04-30T05:11:52;100958.84;;;19.85
13497;BMP180;6820;49.374;8.452;2023-04-30T05:15:54;100960.75;;;19.91
13497;BMP180;6820;49.374;8.452;2023-04-30T05:19:56;100967.84;;;19.98
13497;BMP180;6820;49.374;8.452;2023-04-30T05:23:58;100969.66;;;20.00
13497;BMP180;6820;49.374;8.452;2023-04-30T05:27:59;100965.53;;;20.05
13497;BMP180;6820;49.374;8.452;2023-04-30T05:32:01;100970.53;;;20.01
13497;BMP180;6820;49.374;8.452;2023-04-30T05:36:03;100966.56;;;20.10
13497;BMP180;6820;49.374;8.452;2023-04-30T05:40:05;100967.09;;;20.26
13497;BMP180;6820;49.374;8.452;2023-04-30T05:44:07;100968.97;;;20.32
13497;BMP180;6820;49.374;8.452;2023-04-30T05:48:08;100959.63;;;20.35
13497;BMP180;6820;49.374;8.452;2023-04-30T05:52:10;100964.50;;;20.52
13497;BMP180;6820;49.374;8.452;2023-04-30T05:56:12;100969.19;;;20.65
13497;BMP180;6820;49.374;8.452;2023-04-30T06:00:14;100976.31;;;20.74
13497;BMP180;6820;49.374;8.452;2023-04-30T06:04:16;100972.59;;;20.92
13497;BMP180;6820;49.374;8.452;2023-04-30T06:08:18;100967.66;;;20.99
13497;BMP180;6820;49.374;8.452;2023-04-30T06:12:19;100975.53;;;21.04
13497;BMP180;6820;49.374;8.452;2023-04-30T06:16:22;100969.91;;;21.16
13497;BMP180;6820;49.374;8.452;2023-04-30T06:20:23;100972.59;;;21.21
13497;BMP180;6820;49.374;8.452;2023-04-30T06:24:27;100970.22;;;21.28
13497;BMP180;6820;49.374;8.452;2023-04-30T06:28:30;100968.06;;;21.43
13497;BMP180;6820;49.374;8.452;2023-04-30T06:32:32;100972.03;;;21.61
13497;BMP180;6820;49.374;8.452;2023-04-30T06:36:33;100960.47;;;21.79
13497;BMP180;6820;49.374;8.452;2023-04-30T06:40:35;100965.09;;;21.92
13497;BMP180;6820;49.374;8.452;2023-04-30T06:44:37;100961.75;;;21.96
13497;BMP180;6820;49.374;8.452;2023-04-30T06:48:38;100969.75;;;22.06
13497;BMP180;6820;49.374;8.452;2023-04-30T06:52:40;100966.81;;;21.92
13497;BMP180;6820;49.374;8.452;2023-04-30T06:56:42;100965.19;;;21.95
13497;BMP180;6820;49.374;8.452;2023-04-30T07:00:45;100963.03;;;21.78
13497;BMP180;6820;49.374;8.452;2023-04-30T07:04:46;100954.88;;;21.63
13497;BMP180;6820;49.374;8.452;2023-04-30T07:08:49;100955.66;;;21.61
13497;BMP180;6820;49.374;8.452;2023-04-30T07:12:51;100960.13;;;21.66
13497;BMP180;6820;49.374;8.452;2023-04-30T07:16:53;100958.53;;;21.71
13497;BMP180;6820;49.374;8.452;2023-04-30T07:20:54;100955.09;;;21.70
13497;BMP180;6820;49.374;8.452;2023-04-30T07:24:56;100970.38;;;21.63
13497;BMP180;6820;49.374;8.452;2023-04-30T07:28:57;100969.22;;;21.52
13497;BMP180;6820;49.374;8.452;2023-04-30T07:32:59;100965.69;;;21.49
13497;BMP180;6820;49.374;8.452;2023-04-30T07:37:01;100963.13;;;21.50
13497;BMP180;6820;49.374;8.452;2023-04-30T07:41:03;100966.63;;;21.52
13497;BMP180;6820;49.374;8.452;2023-04-30T07:45:05;100958.19;;;21.58
13497;BMP180;6820;49.374;8.452;2023-04-30T07:49:07;100956.66;;;21.66
13497;BMP180;6820;49.374;8.452;2023-04-30T07:53:08;100964.53;;;21.70
13497;BMP180;6820;49.374;8.452;2023-04-30T07:57:10;100957.75;;;21.73
13497;BMP180;6820;49.374;8.452;2023-04-30T08:01:14;100963.03;;;21.79
13497;BMP180;6820;49.374;8.452;2023-04-30T08:05:15;100962.31;;;21.85
13497;BMP180;6820;49.374;8.452;2023-04-30T08:09:17;100973.72;;;21.93
13497;BMP180;6820;49.374;8.452;2023-04-30T08:13:19;100966.19;;;22.01
13497;BMP180;6820;49.374;8.452;2023-04-30T08:17:21;100957.88;;;22.11
13497;BMP180;6820;49.374;8.452;2023-04-30T08:21:22;100961.16;;;22.39
13497;BMP180;6820;49.374;8.452;2023-04-30T08:25:24;100966.63;;;22.53
13497;BMP180;6820;49.374;8.452;2023-04-30T08:29:26;100962.47;;;22.59
13497;BMP180;6820;49.374;8.452;2023-04-30T08:33:28;100958.91;;;22.92
13497;BMP180;6820;49.374;8.452;2023-04-30T08:37:29;100959.28;;;23.10
13497;BMP180;6820;49.374;8.452;2023-04-30T08:41:32;100961.16;;;23.17
13497;BMP180;6820;49.374;8.452;2023-04-30T08:45:36;100951.53;;;23.53
13497;BMP180;6820;49.374;8.452;2023-04-30T08:49:39;100951.78;;;24.16
13497;BMP180;6820;49.374;8.452;2023-04-30T08:53:41;100954.25;;;24.09
13497;BMP180;6820;49.374;8.452;2023-04-30T08:57:43;100954.09;;;23.99
13497;BMP180;6820;49.374;8.452;2023-04-30T09:01:44;100959.34;;;24.03
13497;BMP180;6820;49.374;8.452;2023-04-30T09:05:46;100949.31;;;24.21
13497;BMP180;6820;49.374;8.452;2023-04-30T09:09:51;100934.38;;;24.61
13497;BMP180;6820;49.374;8.452;2023-04-30T09:13:56;100940.72;;;24.83
13497;BMP180;6820;49.374;8.452;2023-04-30T09:18:13;100937.41;;;24.92
13497;BMP180;6820;49.374;8.452;2023-04-30T09:22:20;100932.25;;;24.93
13497;BMP180;6820;49.374;8.452;2023-04-30T09:26:29;100939.81;;;24.80
13497;BMP180;6820;49.374;8.452;2023-04-30T09:30:31;100936.28;;;24.74
13497;BMP180;6820;49.374;8.452;2023-04-30T09:34:34;100929.59;;;24.89
13497;BMP180;6820;49.374;8.452;2023-04-30T09:38:38;100936.81;;;25.15
13497;BMP180;6820;49.374;8.452;2023-04-30T09:42:57;100935.56;;;25.54
13497;BMP180;6820;49.374;8.452;2023-04-30T09:46:58;100924.66;;;25.93
13497;BMP180;6820;49.374;8.452;2023-04-30T09:51:02;100925.75;;;26.17
13497;BMP180;6820;49.374;8.452;2023-04-30T09:55:04;100926.75;;;26.34
13497;BMP180;6820;49.374;8.452;2023-04-30T10:03:11;100908.66;;;26.50
13497;BMP180;6820;49.374;8.452;2023-04-30T10:07:20;100920.81;;;26.59
13497;BMP180;6820;49.374;8.452;2023-04-30T10:11:27;100917.50;;;26.80
13497;BMP180;6820;49.374;8.452;2023-04-30T10:15:37;100909.69;;;26.77
13497;BMP180;6820;49.374;8.452;2023-04-30T10:19:45;100917.47;;;26.76
13497;BMP180;6820;49.374;8.452;2023-04-30T10:23:48;100913.06;;;26.63
13497;BMP180;6820;49.374;8.452;2023-04-30T10:27:50;100908.72;;;26.65
13497;BMP180;6820;49.374;8.452;2023-04-30T10:31:52;100913.91;;;26.68
13497;BMP180;6820;49.374;8.452;2023-04-30T10:35:59;100902.75;;;26.78
13497;BMP180;6820;49.374;8.452;2023-04-30T10:40:02;100894.13;;;26.88
13497;BMP180;6820;49.374;8.452;2023-04-30T10:44:06;100885.47;;;26.94
13497;BMP180;6820;49.374;8.452;2023-04-30T10:48:08;100881.16;;;27.05
13497;BMP180;6820;49.374;8.452;2023-04-30T10:52:10;100880.28;;;27.00
13497;BMP180;6820;49.374;8.452;2023-04-30T10:56:12;100875.09;;;27.03
13497;BMP180;6820;49.374;8.452;2023-04-30T11:00:17;100875.13;;;27.12
13497;BMP180;6820;49.374;8.452;2023-04-30T11:04:19;100870.78;;;27.16
13497;BMP180;6820;49.374;8.452;2023-04-30T11:08:35;100869.91;;;27.09
13497;BMP180;6820;49.374;8.452;2023-04-30T11:12:40;100873.38;;;27.10
13497;BMP180;6820;49.374;8.452;2023-04-30T11:16:41;100875.13;;;27.12
13497;BMP180;6820;49.374;8.452;2023-04-30T11:20:50;100868.19;;;27.11
13497;BMP180;6820;49.374;8.452;2023-04-30T11:29:00;100868.16;;;27.04
13497;BMP180;6820;49.374;8.452;2023-04-30T11:33:02;100857.75;;;27.16
13497;BMP180;6820;49.374;8.452;2023-04-30T11:37:05;100869.06;;;27.21
13497;BMP180;6820;49.374;8.452;2023-04-30T11:41:11;100863.84;;;27.23
13497;BMP180;6820;49.374;8.452;2023-04-30T11:45:15;100856.97;;;27.36
13497;BMP180;6820;49.374;8.452;2023-04-30T11:49:23;100857.84;;;27.38
13497;BMP180;6820;49.374;8.452;2023-04-30T11:53:26;100857.84;;;27.39
13497;BMP180;6820;49.374;8.452;2023-04-30T11:57:34;100847.44;;;27.47
13497;BMP180;6820;49.374;8.452;2023-04-30T12:01:35;100852.63;;;27.55
13497;BMP180;6820;49.374;8.452;2023-04-30T12:05:39;100849.19;;;27.70
13497;BMP180;6820;49.374;8.452;2023-04-30T12:09:54;100843.09;;;27.49
13497;BMP180;6820;49.374;8.452;2023-04-30T12:14:01;100833.50;;;27.14
13497;BMP180;6820;49.374;8.452;2023-04-30T12:18:12;100824.72;;;26.79
13497;BMP180;6820;49.374;8.452;2023-04-30T12:22:14;100819.47;;;26.69
13497;BMP180;6820;49.374;8.452;2023-04-30T12:26:16;100823.88;;;26.92
13497;BMP180;6820;49.374;8.452;2023-04-30T12:30:20;100821.34;;;27.24
13497;BMP180;6820;49.374;8.452;2023-04-30T12:34:25;100816.19;;;27.47
13497;BMP180;6820;49.374;8.452;2023-04-30T12:38:27;100810.13;;;27.56
13497;BMP180;6820;49.374;8.452;2023-04-30T12:42:32;100804.91;;;27.55
13497;BMP180;6820;49.374;8.452;2023-04-30T12:46:34;100808.38;;;27.53
13497;BMP180;6820;49.374;8.452;2023-04-30T12:50:36;100795.34;;;27.61
13497;BMP180;6820;49.374;8.452;2023-04-30T12:54:39;100790.13;;;27.61
13497;BMP180;6820;49.374;8.452;2023-04-30T12:58:42;100791.88;;;27.68
13497;BMP180;6820;49.374;8.452;2023-04-30T13:02:46;100784.91;;;27.79
13497;BMP180;6820;49.374;8.452;2023-04-30T13:06:47;100771.00;;;28.02
13497;BMP180;6820;49.374;8.452;2023-04-30T13:10:50;100775.28;;;28.21
13497;BMP180;6820;49.374;8.452;2023-04-30T13:14:52;100770.78;;;28.57
13497;BMP180;6820;49.374;8.452;2023-04-30T13:18:54;100765.44;;;28.83
13497;BMP180;6820;49.374;8.452;2023-04-30T13:22:55;100759.22;;;29.04
13497;BMP180;6820;49.374;8.452;2023-04-30T13:26:57;100749.56;;;29.16
13497;BMP180;6820;49.374;8.452;2023-04-30T13:30:59;100739.91;;;29.24
13497;BMP180;6820;49.374;8.452;2023-04-30T13:35:01;100745.19;;;29.19
13497;BMP180;6820;49.374;8.452;2023-04-30T13:39:03;100741.91;;;28.92
13497;BMP180;6820;49.374;8.452;2023-04-30T13:43:05;100736.72;;;28.83
13497;BMP180;6820;49.374;8.452;2023-04-30T13:47:06;100727.16;;;28.87
13497;BMP180;6820;49.374;8.452;2023-04-30T13:51:08;100726.31;;;28.82
13497;BMP180;6820;49.374;8.452;2023-04-30T13:55:10;100733.28;;;28.78
13497;BMP180;6820;49.374;8.452;2023-04-30T13:59:12;100724.56;;;28.81
13497;BMP180;6820;49.374;8.452;2023-04-30T14:03:14;100720.03;;;29.05
13497;BMP180;6820;49.374;8.452;2023-04-30T14:07:16;100719.09;;;29.18
13497;BMP180;6820;49.374;8.452;2023-04-30T14:11:18;100716.44;;;29.21
13497;BMP180;6820;49.374;8.452;2023-04-30T14:15:19;100714.66;;;29.26
13497;BMP180;6820;49.374;8.452;2023-04-30T14:19:21;100705.00;;;29.37
13497;BMP180;6820;49.374;8.452;2023-04-30T14:23:23;100693.59;;;29.45
13497;BMP180;6820;49.374;8.452;2023-04-30T14:27:26;100692.75;;;29.43
13497;BMP180;6820;49.374;8.452;2023-04-30T14:31:27;100692.59;;;29.59
13497;BMP180;6820;49.374;8.452;2023-04-30T14:35:29;100686.47;;;29.63
13497;BMP180;6820;49.374;8.452;2023-04-30T14:39:31;100680.34;;;29.67
13497;BMP180;6820;49.374;8.452;2023-04-30T14:43:32;100672.38;;;29.77
13497;BMP180;6820;49.374;8.452;2023-04-30T14:47:34;100667.88;;;29.90
13497;BMP180;6820;49.374;8.452;2023-04-30T14:51:36;100669.63;;;29.89
13497;BMP180;6820;49.374;8.452;2023-04-30T14:55:38;100657.53;;;29.79
13497;BMP180;6820;49.374;8.452;2023-04-30T14:59:40;100657.56;;;29.78
13497;BMP180;6820;49.374;8.452;2023-04-30T15:03:42;100659.25;;;29.83
13497;BMP180;6820;49.374;8.452;2023-04-30T15:07:44;100650.59;;;29.78
13497;BMP180;6820;49.374;8.452;2023-04-30T15:11:46;100655.72;;;29.84
13497;BMP180;6820;49.374;8.452;2023-04-30T15:15:48;100649.72;;;29.78
13497;BMP180;6820;49.374;8.452;2023-04-30T15:19:50;100653.31;;;29.68
13497;BMP180;6820;49.374;8.452;2023-04-30T15:23:51;100648.69;;;29.91
13497;BMP180;6820;49.374;8.452;2023-04-30T15:27:53;100648.41;;;30.13
13497;BMP180;6820;49.374;8.452;2023-04-30T15:31:55;100637.41;;;29.89
13497;BMP180;6820;49.374;8.452;2023-04-30T15:35:57;100637.69;;;29.65
13497;BMP180;6820;49.374;8.452;2023-04-30T15:39:59;100636.22;;;29.38
13497;BMP180;6820;49.374;8.452;2023-04-30T15:44:01;100625.03;;;29.25
13497;BMP180;6820;49.374;8.452;2023-04-30T15:48:03;100617.19;;;29.24
13497;BMP180;6820;49.374;8.452;2023-04-30T15:52:05;100616.09;;;29.48
13497;BMP180;6820;49.374;8.452;2023-04-30T15:56:07;100615.94;;;29.63
13497;BMP180;6820;49.374;8.452;2023-04-30T16:00:11;100609.53;;;29.85
13497;BMP180;6820;49.374;8.452;2023-04-30T16:04:15;100609.63;;;29.79
13497;BMP180;6820;49.374;8.452;2023-04-30T16:08:17;100602.13;;;29.48
13497;BMP180;6820;49.374;8.452;2023-04-30T16:12:19;100591.06;;;29.30
13497;BMP180;6820;49.374;8.452;2023-04-30T16:16:22;100599.81;;;29.23
13497;BMP180;6820;49.374;8.452;2023-04-30T16:20:25;100591.28;;;29.02
13497;BMP180;6820;49.374;8.452;2023-04-30T16:24:28;100588.84;;;28.87
13497;BMP180;6820;49.374;8.452;2023-04-30T16:28:30;100601.22;;;28.66
13497;BMP180;6820;49.374;8.452;2023-04-30T16:32:32;100589.97;;;28.49
13497;BMP180;6820;49.374;8.452;2023-04-30T16:36:33;100594.44;;;28.35
13497;BMP180;6820;49.374;8.452;2023-04-30T16:40:35;100582.31;;;28.25
13497;BMP180;6820;49.374;8.452;2023-04-30T16:44:37;100578.94;;;28.17
13497;BMP180;6820;49.374;8.452;2023-04-30T16:48:39;100575.50;;;28.08
13497;BMP180;6820;49.374;8.452;2023-04-30T16:52:40;100567.78;;;27.95
13497;BMP180;6820;49.374;8.452;2023-04-30T16:56:42;100569.50;;;27.90
13497;BMP180;6820;49.374;8.452;2023-04-30T17:00:43;100558.28;;;27.81
13497;BMP180;6820;49.374;8.452;2023-04-30T17:04:45;100567.00;;;27.66
13497;BMP180;6820;49.374;8.452;2023-04-30T17:08:47;100560.09;;;27.58
13497;BMP180;6820;49.374;8.452;2023-04-30T17:12:49;100565.34;;;27.51
13497;BMP180;6820;49.374;8.452;2023-04-30T17:16:50;100566.25;;;27.44
13497;BMP180;6820;49.374;8.452;2023-04-30T17:20:52;100562.81;;;27.30
13497;BMP180;6820;49.374;8.452;2023-04-30T17:24:54;100563.72;;;27.14
13497;BMP180;6820;49.374;8.452;2023-04-30T17:28:58;100568.91;;;27.02
13497;BMP180;6820;49.374;8.452;2023-04-30T17:32:59;100565.47;;;26.93
13497;BMP180;6820;49.374;8.452;2023-04-30T17:37:01;100576.78;;;26.82
13497;BMP180;6820;49.374;8.452;2023-04-30T17:41:03;100567.22;;;26.72
13497;BMP180;6820;49.374;8.452;2023-04-30T17:45:05;100579.31;;;26.62
13497;BMP180;6820;49.374;8.452;2023-04-30T17:49:08;100581.97;;;26.52
13497;BMP180;6820;49.374;8.452;2023-04-30T17:53:10;100576.72;;;26.40
13497;BMP180;6820;49.374;8.452;2023-04-30T17:57:12;100582.78;;;26.29
13497;BMP180;6820;49.374;8.452;2023-04-30T18:01:14;100594.03;;;26.18
13497;BMP180;6820;49.374;8.452;2023-04-30T18:05:15;100583.56;;;26.06
13497;BMP180;6820;49.374;8.452;2023-04-30T18:09:17;100587.88;;;25.98
13497;BMP180;6820;49.374;8.452;2023-04-30T18:13:19;100584.38;;;25.87
13497;BMP180;6820;49.374;8.452;2023-04-30T18:17:21;100584.34;;;25.75
13497;BMP180;6820;49.374;8.452;2023-04-30T18:21:22;100592.06;;;25.64
13497;BMP180;6820;49.374;8.452;2023-04-30T18:25:24;100585.13;;;25.54
13497;BMP180;6820;49.374;8.452;2023-04-30T18:29:26;100585.88;;;25.42
13497;BMP180;6820;49.374;8.452;2023-04-30T18:33:28;100589.31;;;25.34
13497;BMP180;6820;49.374;8.452;2023-04-30T18:37:29;100594.44;;;25.22
13497;BMP180;6820;49.374;8.452;2023-04-30T18:41:31;100590.03;;;25.09
13497;BMP180;6820;49.374;8.452;2023-04-30T18:45:33;100596.00;;;25.00
13497;BMP180;6820;49.374;8.452;2023-04-30T18:49:35;100594.13;;;24.84
13497;BMP180;6820;49.374;8.452;2023-04-30T18:53:36;100591.47;;;24.72
13497;BMP180;6820;49.374;8.452;2023-04-30T18:57:41;100596.56;;;24.60
13497;BMP180;6820;49.374;8.452;2023-04-30T19:01:44;100612.88;;;24.50
13497;BMP180;6820;49.374;8.452;2023-04-30T19:05:46;100603.28;;;24.44
13497;BMP180;6820;49.374;8.452;2023-04-30T19:09:47;100598.91;;;24.35
13497;BMP180;6820;49.374;8.452;2023-04-30T19:13:52;100606.53;;;24.22
13497;BMP180;6820;49.374;8.452;2023-04-30T19:17:54;100609.88;;;24.14
13497;BMP180;6820;49.374;8.452;2023-04-30T19:21:56;100604.63;;;24.08
13497;BMP180;6820;49.374;8.452;2023-04-30T19:25:58;100610.63;;;24.04
13497;BMP180;6820;49.374;8.452;2023-04-30T19:30:00;100613.19;;;23.99
13497;BMP180;6820;49.374;8.452;2023-04-30T19:34:01;100616.53;;;23.92
13497;BMP180;6820;49.374;8.452;2023-04-30T19:38:04;100611.31;;;23.89
13497;BMP180;6820;49.374;8.452;2023-04-30T19:42:07;100619.00;;;23.82
13497;BMP180;6820;49.374;8.452;2023-04-30T19:46:10;100612.84;;;23.74
13497;BMP180;6820;49.374;8.452;2023-04-30T19:50:12;100612.75;;;23.67
13497;BMP180;6820;49.374;8.452;2023-04-30T19:54:14;100618.66;;;23.54
13497;BMP180;6820;49.374;8.452;2023-04-30T19:58:15;100623.63;;;23.41
13497;BMP180;6820;49.374;8.452;2023-04-30T20:02:17;100620.94;;;23.36
13497;BMP180;6820;49.374;8.452;2023-04-30T20:06:19;100625.94;;;23.23
13497;BMP180;6820;49.374;8.452;2023-04-30T20:10:21;100625.78;;;23.13
13497;BMP180;6820;49.374;8.452;2023-04-30T20:14:23;100625.72;;;23.10
13497;BMP180;6820;49.374;8.452;2023-04-30T20:18:25;100623.13;;;23.08
13497;BMP180;6820;49.374;8.452;2023-04-30T20:22:26;100622.25;;;23.06
13497;BMP180;6820;49.374;8.452;2023-04-30T20:26:28;100613.53;;;23.03
13497;BMP180;6820;49.374;8.452;2023-04-30T20:30:30;100615.97;;;22.91
13497;BMP180;6820;49.374;8.452;2023-04-30T20:34:33;100616.81;;;22.90
13497;BMP180;6820;49.374;8.452;2023-04-30T20:38:36;100618.53;;;22.91
13497;BMP180;6820;49.374;8.452;2023-04-30T20:42:39;100613.28;;;22.85
13497;BMP180;6820;49.374;8.452;2023-04-30T20:46:41;100613.03;;;22.72
13497;BMP180;6820;49.374;8.452;2023-04-30T20:50:43;100606.91;;;22.67
13497;BMP180;6820;49.374;8.452;2023-04-30T20:54:45;100605.91;;;22.59
13497;BMP180;6820;49.374;8.452;2023-04-30T20:58:48;100610.06;;;22.50
13497;BMP180;6820;49.374;8.452;2023-04-30T21:02:50;100610.91;;;22.47
13497;BMP180;6820;49.374;8.452;2023-04-30T21:06:54;100615.97;;;22.43
13497;BMP180;6820;49.374;8.452;2023-04-30T21:10:57;100613.25;;;22.35
13497;BMP180;6820;49.374;8.452;2023-04-30T21:14:58;100608.03;;;22.32
13497;BMP180;6820;49.374;8.452;2023-04-30T21:19:00;100602.00;;;22.33
13497;BMP180;6820;49.374;8.452;2023-04-30T21:23:02;100601.94;;;22.29
13497;BMP180;6820;49.374;8.452;2023-04-30T21:27:04;100607.06;;;22.26
13497;BMP180;6820;49.374;8.452;2023-04-30T21:31:07;100608.75;;;22.24
13497;BMP180;6820;49.374;8.452;2023-04-30T21:35:08;100601.81;;;22.22
13497;BMP180;6820;49.374;8.452;2023-04-30T21:39:10;100598.31;;;22.18
13497;BMP180;6820;49.374;8.452;2023-04-30T21:43:12;100602.50;;;22.13
13497;BMP180;6820;49.374;8.452;2023-04-30T21:47:14;100600.56;;;22.03
13497;BMP180;6820;49.374;8.452;2023-04-30T21:51:16;100591.91;;;22.01
13497;BMP180;6820;49.374;8.452;2023-04-30T21:55:18;100598.78;;;22.01
13497;BMP180;6820;49.374;8.452;2023-04-30T21:59:19;100591.03;;;21.99
13497;BMP180;6820;49.374;8.452;2023-04-30T22:03:21;100591.91;;;22.00
13497;BMP180;6820;49.374;8.452;2023-04-30T22:07:23;100585.03;;;22.00
13497;BMP180;6820;49.374;8.452;2023-04-30T22:11:25;100590.19;;;22.00
13497;BMP180;6820;49.374;8.452;2023-04-30T22:15:27;100585.03;;;22.00
13497;BMP180;6820;49.374;8.452;2023-04-30T22:19:47;100578.94;;;21.98
13497;BMP180;6820;49.374;8.452;2023-04-30T22:23:49;100584.09;;;21.97
13497;BMP180;6820;49.374;8.452;2023-04-30T22:27:51;100579.75;;;21.95
13497;BMP180;6820;49.374;8.452;2023-04-30T22:31:52;100565.94;;;21.91
13497;BMP180;6820;49.374;8.452;2023-04-30T22:35:54;100575.31;;;21.88
13497;BMP180;6820;49.374;8.452;2023-04-30T22:39:56;100570.09;;;21.85
13497;BMP180;6820;49.374;8.452;2023-04-30T22:43:58;100570.88;;;21.81
13497;BMP180;6820;49.374;8.452;2023-04-30T22:48:00;100559.63;;;21.77
13497;BMP180;6820;49.374;8.452;2023-04-30T22:52:02;100560.38;;;21.72
13497;BMP180;6820;49.374;8.452;2023-04-30T22:56:05;100561.16;;;21.68
13497;BMP180;6820;49.374;8.452;2023-04-30T23:00:07;100558.53;;;21.67
13497;BMP180;6820;49.374;8.452;2023-04-30T23:04:10;100558.47;;;21.62
13497;BMP180;6820;49.374;8.452;2023-04-30T23:08:13;100558.41;;;21.59
13497;BMP180;6820;49.374;8.452;2023-04-30T23:12:14;100551.44;;;21.55
13497;BMP180;6820;49.374;8.452;2023-04-30T23:16:16;100556.47;;;21.49
13497;BMP180;6820;49.374;8.452;2023-04-30T23:20:18;100545.03;;;21.36
13497;BMP180;6820;49.374;8.452;2023-04-30T23:24:20;100550.56;;;21.15
13497;BMP180;6820;49.374;8.452;2023-04-30T23:28:21;100553.75;;;21.06
13497;BMP180;6820;49.374;8.452;2023-04-30T23:32:24;100556.19;;;20.98
13497;BMP180;6820;49.374;8.452;2023-04-30T23:36:26;100553.56;;;20.95
13497;BMP180;6820;49.374;8.452;2023-04-30T23:40:28;100541.28;;;20.85